メインページ
METAR-TAF:

METAR-TAF

空港 :

タシュケント, ウズベキスタン

タシュケント国際空港

緯度: 41-16N, 経度: 069-16E, 海抜: 489m

現時点の気象観測

当レポートは18分前の12:00(UTC)に作成
南/南西の風 4kt
気温 11°C
湿度 71%
気圧 1015 hPa
視程: 7000m

METAR: UTTT 241200Z 20004KT 7000 NSC 11/06 Q1015 R08R/CLRD70 NOSIG

時間: 17:18 (12:18 UTC)

予報

当レポートは1時間18分前の11:00(UTC)に作成
予報は24日の 12時(UTC)から 25日の 12時(UTC)まで有効
南西の風 10kt
視程: 5000m
高度6000ftの雲は散在している, 積乱雲.
高度10000ftの千切れ雲あり
24日の 12時(UTC)から 24日の 24時(UTC)まで一時的に
西/北西の風 10kt、最大20ktの突風を伴う
視程: 2500m
高度1000ftの雲は散在している
高度3000ftの千切れ雲あり, 積乱雲.
高度10000ftの曇り
弱いにわか雨, 靄

TAF: UTTT 241100Z 2412/2512 23010KT 5000 BR SCT060CB BKN100 TEMPO 2412/2424 30010G20KT 2500 -SHRA BR SCT010 BKN030CB OVC100

4,000以上の空港の気象観測と天気予報(METAR報とTAF報)

利用可能な観測所は地図上に黄色い丸と赤い丸で示す。

丸の上にカーソルを重ねると観測所名を参照できる。

次にクリックすると気象観測と天気予報を参照できる。

マップの切り替え:黒色「×」印の緑ボタンをクリックして拡大、「-」印の緑ボタンをクリックして縮小、緑色の三角印をクリックして隣りの地図に切り替え


METAR-TAF: